sensor_id;sensor_type;location;lat;lon;timestamp;pressure;altitude;pressure_sealevel;temperature;humidity
54924;BME280;40825;52.270;20.984;2023-10-19T00:01:22;100172.16;;;4.10;79.16
54924;BME280;40825;52.270;20.984;2023-10-19T00:03:52;100166.65;;;4.09;78.23
54924;BME280;40825;52.270;20.984;2023-10-19T00:06:22;100166.02;;;4.10;78.82
54924;BME280;40825;52.270;20.984;2023-10-19T00:08:49;100161.30;;;4.06;79.13
54924;BME280;40825;52.270;20.984;2023-10-19T00:11:17;100156.96;;;4.04;78.48
54924;BME280;40825;52.270;20.984;2023-10-19T00:13:52;100152.80;;;4.03;78.41
54924;BME280;40825;52.270;20.984;2023-10-19T00:16:20;100142.81;;;4.03;78.41
54924;BME280;40825;52.270;20.984;2023-10-19T00:18:49;100142.14;;;4.04;78.33
54924;BME280;40825;52.270;20.984;2023-10-19T00:21:16;100139.58;;;4.05;78.26
54924;BME280;40825;52.270;20.984;2023-10-19T00:23:56;100135.31;;;4.06;78.55
54924;BME280;40825;52.270;20.984;2023-10-19T00:26:24;100135.23;;;4.05;78.84
54924;BME280;40825;52.270;20.984;2023-10-19T00:28:54;100127.23;;;4.03;78.61
54924;BME280;40825;52.270;20.984;2023-10-19T00:31:24;100125.00;;;4.03;78.87
54924;BME280;40825;52.270;20.984;2023-10-19T00:33:54;100127.30;;;4.03;78.99
54924;BME280;40825;52.270;20.984;2023-10-19T00:36:23;100129.11;;;4.01;79.39
54924;BME280;40825;52.270;20.984;2023-10-19T00:38:53;100128.61;;;3.97;79.85
54924;BME280;40825;52.270;20.984;2023-10-19T00:41:30;100127.42;;;3.93;79.55
54924;BME280;40825;52.270;20.984;2023-10-19T00:44:06;100126.07;;;3.92;79.31
54924;BME280;40825;52.270;20.984;2023-10-19T00:46:43;100120.00;;;3.91;79.12
54924;BME280;40825;52.270;20.984;2023-10-19T00:49:15;100115.27;;;3.91;79.46
54924;BME280;40825;52.270;20.984;2023-10-19T00:54:34;100115.61;;;3.86;80.19
54924;BME280;40825;52.270;20.984;2023-10-19T00:57:25;100111.83;;;3.83;79.62
54924;BME280;40825;52.270;20.984;2023-10-19T01:00:13;100109.54;;;3.81;79.83
54924;BME280;40825;52.270;20.984;2023-10-19T01:02:48;100107.97;;;3.79;79.56
54924;BME280;40825;52.270;20.984;2023-10-19T01:05:16;100103.89;;;3.78;79.76
54924;BME280;40825;52.270;20.984;2023-10-19T01:07:47;100101.31;;;3.77;79.87
54924;BME280;40825;52.270;20.984;2023-10-19T01:10:21;100093.68;;;3.76;80.08
54924;BME280;40825;52.270;20.984;2023-10-19T01:12:47;100091.63;;;3.76;79.90
54924;BME280;40825;52.270;20.984;2023-10-19T01:15:23;100085.42;;;3.74;79.94
54924;BME280;40825;52.270;20.984;2023-10-19T01:18:09;100082.16;;;3.72;80.45
54924;BME280;40825;52.270;20.984;2023-10-19T01:20:39;100084.35;;;3.67;80.64
54924;BME280;40825;52.270;20.984;2023-10-19T01:23:23;100080.73;;;3.65;80.39
54924;BME280;40825;52.270;20.984;2023-10-19T01:25:58;100083.63;;;3.64;80.28
54924;BME280;40825;52.270;20.984;2023-10-19T01:28:32;100081.42;;;3.63;80.44
54924;BME280;40825;52.270;20.984;2023-10-19T01:34:37;100080.75;;;3.59;80.77
54924;BME280;40825;52.270;20.984;2023-10-19T01:37:10;100078.10;;;3.57;80.58
54924;BME280;40825;52.270;20.984;2023-10-19T01:39:37;100074.54;;;3.56;80.72
54924;BME280;40825;52.270;20.984;2023-10-19T01:42:04;100066.36;;;3.53;80.96
54924;BME280;40825;52.270;20.984;2023-10-19T01:44:33;100064.03;;;3.52;81.10
54924;BME280;40825;52.270;20.984;2023-10-19T01:47:10;100060.53;;;3.50;81.22
54924;BME280;40825;52.270;20.984;2023-10-19T01:49:39;100054.02;;;3.49;81.10
54924;BME280;40825;52.270;20.984;2023-10-19T01:52:05;100054.95;;;3.46;81.22
54924;BME280;40825;52.270;20.984;2023-10-19T01:54:32;100054.83;;;3.44;81.19
54924;BME280;40825;52.270;20.984;2023-10-19T01:57:03;100053.83;;;3.41;82.26
54924;BME280;40825;52.270;20.984;2023-10-19T01:59:31;100057.89;;;3.34;82.77
54924;BME280;40825;52.270;20.984;2023-10-19T02:01:57;100054.83;;;3.27;82.77
54924;BME280;40825;52.270;20.984;2023-10-19T02:04:24;100050.80;;;3.22;82.23
54924;BME280;40825;52.270;20.984;2023-10-19T02:06:53;100047.83;;;3.22;81.79
54924;BME280;40825;52.270;20.984;2023-10-19T02:09:20;100051.98;;;3.22;81.80
54924;BME280;40825;52.270;20.984;2023-10-19T02:12:04;100047.45;;;3.24;81.97
54924;BME280;40825;52.270;20.984;2023-10-19T02:14:53;100048.16;;;3.24;82.30
54924;BME280;40825;52.270;20.984;2023-10-19T02:17:38;100045.65;;;3.21;82.47
54924;BME280;40825;52.270;20.984;2023-10-19T02:20:29;100042.40;;;3.20;82.09
54924;BME280;40825;52.270;20.984;2023-10-19T02:22:57;100039.40;;;3.20;82.85
54924;BME280;40825;52.270;20.984;2023-10-19T02:25:24;100038.92;;;3.18;83.51
54924;BME280;40825;52.270;20.984;2023-10-19T02:28:18;100040.19;;;3.15;83.71
54924;BME280;40825;52.270;20.984;2023-10-19T02:30:54;100036.19;;;3.10;84.31
54924;BME280;40825;52.270;20.984;2023-10-19T02:34:01;100033.43;;;3.05;83.31
54924;BME280;40825;52.270;20.984;2023-10-19T02:36:38;100029.20;;;3.05;83.05
54924;BME280;40825;52.270;20.984;2023-10-19T02:39:12;100030.10;;;3.05;83.14
54924;BME280;40825;52.270;20.984;2023-10-19T02:41:40;100022.98;;;3.04;82.87
54924;BME280;40825;52.270;20.984;2023-10-19T02:44:17;100022.71;;;3.05;82.83
54924;BME280;40825;52.270;20.984;2023-10-19T02:46:52;100023.71;;;3.06;82.99
54924;BME280;40825;52.270;20.984;2023-10-19T02:49:28;100021.99;;;3.06;82.83
54924;BME280;40825;52.270;20.984;2023-10-19T02:52:15;100018.75;;;3.06;82.80
54924;BME280;40825;52.270;20.984;2023-10-19T02:58:01;100017.84;;;3.05;83.11
54924;BME280;40825;52.270;20.984;2023-10-19T03:00:26;100009.45;;;3.02;83.15
54924;BME280;40825;52.270;20.984;2023-10-19T03:03:07;100008.55;;;3.02;82.97
54924;BME280;40825;52.270;20.984;2023-10-19T03:05:33;100005.95;;;3.02;83.05
54924;BME280;40825;52.270;20.984;2023-10-19T03:08:01;100003.41;;;3.01;83.21
54924;BME280;40825;52.270;20.984;2023-10-19T03:10:31;99998.95;;;3.00;83.27
54924;BME280;40825;52.270;20.984;2023-10-19T03:13:10;99992.27;;;2.98;83.09
54924;BME280;40825;52.270;20.984;2023-10-19T03:15:42;99991.64;;;2.97;83.17
54924;BME280;40825;52.270;20.984;2023-10-19T03:18:09;99988.05;;;2.97;83.33
54924;BME280;40825;52.270;20.984;2023-10-19T03:20:37;99989.34;;;2.94;83.62
54924;BME280;40825;52.270;20.984;2023-10-19T03:23:06;99984.27;;;2.90;83.40
54924;BME280;40825;52.270;20.984;2023-10-19T03:25:32;99983.43;;;2.90;83.56
54924;BME280;40825;52.270;20.984;2023-10-19T03:28:17;99979.82;;;2.89;83.70
54924;BME280;40825;52.270;20.984;2023-10-19T03:30:45;99978.45;;;2.87;83.58
54924;BME280;40825;52.270;20.984;2023-10-19T03:33:15;99976.55;;;2.86;83.49
54924;BME280;40825;52.270;20.984;2023-10-19T03:35:46;99976.77;;;2.86;83.74
54924;BME280;40825;52.270;20.984;2023-10-19T03:38:12;99970.07;;;2.84;83.87
54924;BME280;40825;52.270;20.984;2023-10-19T03:40:52;99967.21;;;2.85;83.71
54924;BME280;40825;52.270;20.984;2023-10-19T03:43:39;99963.06;;;2.86;83.69
54924;BME280;40825;52.270;20.984;2023-10-19T03:46:10;99958.98;;;2.83;84.17
54924;BME280;40825;52.270;20.984;2023-10-19T03:49:03;99950.43;;;2.80;84.10
54924;BME280;40825;52.270;20.984;2023-10-19T03:51:41;99942.20;;;2.78;83.91
54924;BME280;40825;52.270;20.984;2023-10-19T03:54:27;99933.26;;;2.76;84.20
54924;BME280;40825;52.270;20.984;2023-10-19T03:57:03;99927.69;;;2.75;84.07
54924;BME280;40825;52.270;20.984;2023-10-19T03:59:34;99926.77;;;2.76;84.06
54924;BME280;40825;52.270;20.984;2023-10-19T04:02:08;99923.02;;;2.77;84.08
54924;BME280;40825;52.270;20.984;2023-10-19T04:04:57;99914.65;;;2.74;84.29
54924;BME280;40825;52.270;20.984;2023-10-19T04:07:32;99914.77;;;2.72;84.24
54924;BME280;40825;52.270;20.984;2023-10-19T04:09:58;99913.15;;;2.71;84.35
54924;BME280;40825;52.270;20.984;2023-10-19T04:12:51;99906.81;;;2.70;84.80
54924;BME280;40825;52.270;20.984;2023-10-19T04:15:37;99898.70;;;2.66;84.75
54924;BME280;40825;52.270;20.984;2023-10-19T04:18:04;99894.03;;;2.66;85.76
54924;BME280;40825;52.270;20.984;2023-10-19T04:20:39;99891.35;;;2.64;87.48
54924;BME280;40825;52.270;20.984;2023-10-19T04:23:21;99891.34;;;2.63;88.21
54924;BME280;40825;52.270;20.984;2023-10-19T04:26:07;99888.06;;;2.60;88.64
54924;BME280;40825;52.270;20.984;2023-10-19T04:28:56;99882.84;;;2.59;87.38
54924;BME280;40825;52.270;20.984;2023-10-19T04:32:24;99880.38;;;2.60;87.78
54924;BME280;40825;52.270;20.984;2023-10-19T04:34:53;99877.40;;;2.62;87.55
54924;BME280;40825;52.270;20.984;2023-10-19T04:37:44;99871.90;;;2.64;86.48
54924;BME280;40825;52.270;20.984;2023-10-19T04:40:28;99871.17;;;2.68;86.05
54924;BME280;40825;52.270;20.984;2023-10-19T04:43:02;99867.64;;;2.70;86.39
54924;BME280;40825;52.270;20.984;2023-10-19T04:45:31;99865.18;;;2.71;85.87
54924;BME280;40825;52.270;20.984;2023-10-19T04:48:05;99857.28;;;2.75;85.82
54924;BME280;40825;52.270;20.984;2023-10-19T04:50:54;99856.45;;;2.78;85.88
54924;BME280;40825;52.270;20.984;2023-10-19T04:53:48;99854.64;;;2.80;86.48
54924;BME280;40825;52.270;20.984;2023-10-19T04:56:25;99847.54;;;2.81;86.41
54924;BME280;40825;52.270;20.984;2023-10-19T05:03:41;99844.22;;;2.83;86.69
54924;BME280;40825;52.270;20.984;2023-10-19T05:06:08;99848.92;;;2.87;86.24
54924;BME280;40825;52.270;20.984;2023-10-19T05:08:42;99852.48;;;2.90;86.17
54924;BME280;40825;52.270;20.984;2023-10-19T05:11:12;99851.90;;;2.94;86.01
54924;BME280;40825;52.270;20.984;2023-10-19T05:13:40;99852.44;;;2.97;86.07
54924;BME280;40825;52.270;20.984;2023-10-19T05:16:15;99851.45;;;3.00;86.10
54924;BME280;40825;52.270;20.984;2023-10-19T05:18:41;99855.21;;;3.02;86.32
54924;BME280;40825;52.270;20.984;2023-10-19T05:21:15;99857.25;;;3.05;86.60
54924;BME280;40825;52.270;20.984;2023-10-19T05:23:47;99855.02;;;3.07;86.56
54924;BME280;40825;52.270;20.984;2023-10-19T05:26:16;99854.73;;;3.10;86.91
54924;BME280;40825;52.270;20.984;2023-10-19T05:28:42;99850.23;;;3.11;87.06
54924;BME280;40825;52.270;20.984;2023-10-19T05:31:26;99851.35;;;3.12;86.94
54924;BME280;40825;52.270;20.984;2023-10-19T05:33:57;99856.49;;;3.13;87.28
54924;BME280;40825;52.270;20.984;2023-10-19T05:36:25;99856.91;;;3.16;86.93
54924;BME280;40825;52.270;20.984;2023-10-19T05:38:50;99855.73;;;3.19;87.74
54924;BME280;40825;52.270;20.984;2023-10-19T05:41:19;99853.83;;;3.20;87.90
54924;BME280;40825;52.270;20.984;2023-10-19T05:44:07;99852.47;;;3.23;87.25
54924;BME280;40825;52.270;20.984;2023-10-19T05:46:35;99853.07;;;3.29;87.33
54924;BME280;40825;52.270;20.984;2023-10-19T05:49:07;99855.44;;;3.36;86.94
54924;BME280;40825;52.270;20.984;2023-10-19T05:51:41;99854.45;;;3.42;87.07
54924;BME280;40825;52.270;20.984;2023-10-19T05:54:09;99852.77;;;3.46;87.25
54924;BME280;40825;52.270;20.984;2023-10-19T05:56:47;99855.93;;;3.50;87.59
54924;BME280;40825;52.270;20.984;2023-10-19T05:59:35;99860.39;;;3.52;88.08
54924;BME280;40825;52.270;20.984;2023-10-19T06:05:36;99852.29;;;3.54;87.89
54924;BME280;40825;52.270;20.984;2023-10-19T06:08:07;99847.02;;;3.56;87.68
54924;BME280;40825;52.270;20.984;2023-10-19T06:11:13;99843.48;;;3.60;87.52
54924;BME280;40825;52.270;20.984;2023-10-19T06:14:06;99835.64;;;3.66;87.07
54924;BME280;40825;52.270;20.984;2023-10-19T06:16:43;99839.24;;;3.70;87.09
54924;BME280;40825;52.270;20.984;2023-10-19T06:19:15;99840.65;;;3.76;86.81
54924;BME280;40825;52.270;20.984;2023-10-19T06:21:41;99840.51;;;3.85;86.81
54924;BME280;40825;52.270;20.984;2023-10-19T06:24:08;99835.16;;;3.95;86.82
54924;BME280;40825;52.270;20.984;2023-10-19T06:26:34;99834.55;;;4.05;86.77
54924;BME280;40825;52.270;20.984;2023-10-19T06:29:03;99839.76;;;4.18;86.74
54924;BME280;40825;52.270;20.984;2023-10-19T06:31:42;99842.02;;;4.30;86.77
54924;BME280;40825;52.270;20.984;2023-10-19T06:34:11;99844.20;;;4.41;86.45
54924;BME280;40825;52.270;20.984;2023-10-19T06:36:49;99837.35;;;4.52;86.44
54924;BME280;40825;52.270;20.984;2023-10-19T06:39:16;99832.61;;;4.61;86.06
54924;BME280;40825;52.270;20.984;2023-10-19T06:41:57;99826.63;;;4.67;85.95
54924;BME280;40825;52.270;20.984;2023-10-19T06:44:30;99825.09;;;4.70;85.73
54924;BME280;40825;52.270;20.984;2023-10-19T06:46:58;99821.23;;;4.66;85.55
54924;BME280;40825;52.270;20.984;2023-10-19T06:49:34;99823.89;;;4.65;85.50
54924;BME280;40825;52.270;20.984;2023-10-19T06:55:36;99828.41;;;4.67;85.20
54924;BME280;40825;52.270;20.984;2023-10-19T06:58:10;99827.09;;;4.70;84.21
54924;BME280;40825;52.270;20.984;2023-10-19T07:00:41;99826.00;;;4.72;83.51
54924;BME280;40825;52.270;20.984;2023-10-19T07:03:45;99818.63;;;4.74;83.27
54924;BME280;40825;52.270;20.984;2023-10-19T07:06:35;99813.63;;;4.72;82.24
54924;BME280;40825;52.270;20.984;2023-10-19T07:09:26;99811.77;;;4.73;82.16
54924;BME280;40825;52.270;20.984;2023-10-19T07:12:16;99802.71;;;4.76;82.46
54924;BME280;40825;52.270;20.984;2023-10-19T07:14:43;99805.29;;;4.84;81.82
54924;BME280;40825;52.270;20.984;2023-10-19T07:17:09;99804.64;;;4.90;81.86
54924;BME280;40825;52.270;20.984;2023-10-19T07:19:34;99798.77;;;4.98;82.59
54924;BME280;40825;52.270;20.984;2023-10-19T07:22:00;99790.57;;;5.11;82.40
54924;BME280;40825;52.270;20.984;2023-10-19T07:24:29;99786.81;;;5.19;82.36
54924;BME280;40825;52.270;20.984;2023-10-19T07:26:58;99795.84;;;5.27;82.08
54924;BME280;40825;52.270;20.984;2023-10-19T07:29:40;99795.94;;;5.37;81.96
54924;BME280;40825;52.270;20.984;2023-10-19T07:32:08;99789.90;;;5.41;81.08
54924;BME280;40825;52.270;20.984;2023-10-19T07:34:36;99777.30;;;5.44;80.35
54924;BME280;40825;52.270;20.984;2023-10-19T07:37:02;99773.02;;;5.46;80.06
54924;BME280;40825;52.270;20.984;2023-10-19T07:39:29;99760.63;;;5.53;80.39
54924;BME280;40825;52.270;20.984;2023-10-19T07:42:01;99757.42;;;5.63;80.80
54924;BME280;40825;52.270;20.984;2023-10-19T07:44:30;99756.14;;;5.72;80.21
54924;BME280;40825;52.270;20.984;2023-10-19T07:46:58;99759.66;;;5.81;80.41
54924;BME280;40825;52.270;20.984;2023-10-19T07:49:24;99756.95;;;5.86;79.75
54924;BME280;40825;52.270;20.984;2023-10-19T07:51:58;99759.86;;;5.89;79.68
54924;BME280;40825;52.270;20.984;2023-10-19T07:54:35;99754.19;;;5.98;80.21
54924;BME280;40825;52.270;20.984;2023-10-19T07:57:04;99746.79;;;6.05;79.98
54924;BME280;40825;52.270;20.984;2023-10-19T07:59:33;99742.28;;;6.12;79.75
54924;BME280;40825;52.270;20.984;2023-10-19T08:02:04;99743.19;;;6.15;78.54
54924;BME280;40825;52.270;20.984;2023-10-19T08:04:30;99742.59;;;6.16;79.30
54924;BME280;40825;52.270;20.984;2023-10-19T08:06:58;99741.88;;;6.25;80.19
54924;BME280;40825;52.270;20.984;2023-10-19T08:09:39;99730.77;;;6.32;79.34
54924;BME280;40825;52.270;20.984;2023-10-19T08:12:15;99722.64;;;6.42;80.33
54924;BME280;40825;52.270;20.984;2023-10-19T08:14:41;99730.89;;;6.52;80.42
54924;BME280;40825;52.270;20.984;2023-10-19T08:17:08;99730.86;;;6.59;78.64
54924;BME280;40825;52.270;20.984;2023-10-19T08:19:37;99727.66;;;6.61;78.15
54924;BME280;40825;52.270;20.984;2023-10-19T08:22:02;99724.73;;;6.65;78.67
54924;BME280;40825;52.270;20.984;2023-10-19T08:24:30;99723.23;;;6.72;79.00
54924;BME280;40825;52.270;20.984;2023-10-19T08:26:56;99717.18;;;6.79;78.89
54924;BME280;40825;52.270;20.984;2023-10-19T08:29:25;99709.95;;;6.88;78.99
54924;BME280;40825;52.270;20.984;2023-10-19T08:31:50;99706.38;;;6.96;78.49
54924;BME280;40825;52.270;20.984;2023-10-19T08:34:19;99703.04;;;6.99;76.99
54924;BME280;40825;52.270;20.984;2023-10-19T08:36:49;99696.91;;;7.03;77.35
54924;BME280;40825;52.270;20.984;2023-10-19T08:39:15;99696.27;;;7.10;77.14
54924;BME280;40825;52.270;20.984;2023-10-19T08:41:40;99691.55;;;7.15;77.13
54924;BME280;40825;52.270;20.984;2023-10-19T08:44:07;99685.27;;;7.27;77.41
54924;BME280;40825;52.270;20.984;2023-10-19T08:46:42;99681.03;;;7.35;77.28
54924;BME280;40825;52.270;20.984;2023-10-19T08:49:11;99673.38;;;7.41;76.77
54924;BME280;40825;52.270;20.984;2023-10-19T08:51:38;99670.99;;;7.52;77.66
54924;BME280;40825;52.270;20.984;2023-10-19T08:54:05;99667.81;;;7.64;76.77
54924;BME280;40825;52.270;20.984;2023-10-19T08:56:32;99662.80;;;7.75;76.09
54924;BME280;40825;52.270;20.984;2023-10-19T08:59:00;99663.17;;;7.83;76.51
54924;BME280;40825;52.270;20.984;2023-10-19T09:01:32;99662.80;;;7.87;74.67
54924;BME280;40825;52.270;20.984;2023-10-19T09:04:01;99654.71;;;7.93;74.99
54924;BME280;40825;52.270;20.984;2023-10-19T09:06:27;99649.55;;;8.01;75.78
54924;BME280;40825;52.270;20.984;2023-10-19T09:08:55;99645.84;;;8.10;74.68
54924;BME280;40825;52.270;20.984;2023-10-19T09:11:23;99649.15;;;8.13;73.81
54924;BME280;40825;52.270;20.984;2023-10-19T09:13:51;99654.17;;;8.23;73.65
54924;BME280;40825;52.270;20.984;2023-10-19T09:16:19;99649.77;;;8.32;74.34
54924;BME280;40825;52.270;20.984;2023-10-19T09:19:06;99649.98;;;8.43;73.11
54924;BME280;40825;52.270;20.984;2023-10-19T09:21:32;99643.65;;;8.52;71.77
54924;BME280;40825;52.270;20.984;2023-10-19T09:24:04;99636.25;;;8.63;71.91
54924;BME280;40825;52.270;20.984;2023-10-19T09:26:39;99622.84;;;8.73;71.30
54924;BME280;40825;52.270;20.984;2023-10-19T09:29:05;99616.70;;;8.82;70.67
54924;BME280;40825;52.270;20.984;2023-10-19T09:31:31;99616.94;;;8.92;70.44
54924;BME280;40825;52.270;20.984;2023-10-19T09:33:57;99613.27;;;8.97;69.59
54924;BME280;40825;52.270;20.984;2023-10-19T09:39:17;99601.55;;;9.13;69.48
54924;BME280;40825;52.270;20.984;2023-10-19T09:41:44;99587.48;;;9.21;69.05
54924;BME280;40825;52.270;20.984;2023-10-19T09:44:11;99580.77;;;9.27;70.00
54924;BME280;40825;52.270;20.984;2023-10-19T09:46:40;99579.85;;;9.37;69.14
54924;BME280;40825;52.270;20.984;2023-10-19T09:49:07;99571.52;;;9.42;68.37
54924;BME280;40825;52.270;20.984;2023-10-19T09:51:37;99569.88;;;9.44;67.97
54924;BME280;40825;52.270;20.984;2023-10-19T09:57:18;99540.71;;;9.44;66.83
54924;BME280;40825;52.270;20.984;2023-10-19T09:59:49;99537.52;;;9.48;66.39
54924;BME280;40825;52.270;20.984;2023-10-19T10:02:17;99534.60;;;9.55;66.20
54924;BME280;40825;52.270;20.984;2023-10-19T10:04:53;99535.73;;;9.66;66.60
54924;BME280;40825;52.270;20.984;2023-10-19T10:07:22;99534.98;;;9.77;64.83
54924;BME280;40825;52.270;20.984;2023-10-19T10:10:00;99533.62;;;9.83;64.79
54924;BME280;40825;52.270;20.984;2023-10-19T10:12:33;99532.35;;;9.84;64.57
54924;BME280;40825;52.270;20.984;2023-10-19T10:15:20;99521.16;;;9.86;64.75
54924;BME280;40825;52.270;20.984;2023-10-19T10:18:12;99510.67;;;9.91;65.39
54924;BME280;40825;52.270;20.984;2023-10-19T10:20:39;99506.44;;;9.96;63.03
54924;BME280;40825;52.270;20.984;2023-10-19T10:23:27;99501.30;;;10.03;64.17
54924;BME280;40825;52.270;20.984;2023-10-19T10:26:03;99503.92;;;10.06;63.79
54924;BME280;40825;52.270;20.984;2023-10-19T10:28:30;99500.94;;;10.04;63.30
54924;BME280;40825;52.270;20.984;2023-10-19T10:31:11;99496.91;;;10.05;63.36
54924;BME280;40825;52.270;20.984;2023-10-19T10:33:49;99488.46;;;10.04;63.07
54924;BME280;40825;52.270;20.984;2023-10-19T10:36:17;99485.77;;;10.03;62.31
54924;BME280;40825;52.270;20.984;2023-10-19T10:38:48;99479.56;;;10.03;62.23
54924;BME280;40825;52.270;20.984;2023-10-19T10:41:45;99482.20;;;10.03;62.75
54924;BME280;40825;52.270;20.984;2023-10-19T10:44:11;99478.92;;;10.08;63.77
54924;BME280;40825;52.270;20.984;2023-10-19T10:46:40;99479.82;;;10.12;63.08
54924;BME280;40825;52.270;20.984;2023-10-19T10:49:08;99476.38;;;10.12;61.69
54924;BME280;40825;52.270;20.984;2023-10-19T10:51:34;99469.80;;;10.15;61.90
54924;BME280;40825;52.270;20.984;2023-10-19T10:54:00;99469.83;;;10.17;61.62
54924;BME280;40825;52.270;20.984;2023-10-19T10:56:29;99465.54;;;10.21;62.15
54924;BME280;40825;52.270;20.984;2023-10-19T10:58:54;99461.66;;;10.25;61.91
54924;BME280;40825;52.270;20.984;2023-10-19T11:01:32;99454.50;;;10.21;61.16
54924;BME280;40825;52.270;20.984;2023-10-19T11:04:11;99445.61;;;10.17;61.45
54924;BME280;40825;52.270;20.984;2023-10-19T11:06:54;99433.86;;;10.15;61.83
54924;BME280;40825;52.270;20.984;2023-10-19T11:09:21;99433.41;;;10.14;62.33
54924;BME280;40825;52.270;20.984;2023-10-19T11:11:54;99431.92;;;10.12;62.22
54924;BME280;40825;52.270;20.984;2023-10-19T11:14:28;99428.52;;;10.09;61.90
54924;BME280;40825;52.270;20.984;2023-10-19T11:17:12;99419.74;;;10.05;61.82
54924;BME280;40825;52.270;20.984;2023-10-19T11:19:48;99408.09;;;10.04;61.98
54924;BME280;40825;52.270;20.984;2023-10-19T11:22:28;99408.08;;;10.08;61.98
54924;BME280;40825;52.270;20.984;2023-10-19T11:24:54;99404.69;;;10.14;62.04
54924;BME280;40825;52.270;20.984;2023-10-19T11:27:24;99398.19;;;10.19;62.28
54924;BME280;40825;52.270;20.984;2023-10-19T11:29:56;99397.86;;;10.23;62.22
54924;BME280;40825;52.270;20.984;2023-10-19T11:32:22;99389.35;;;10.28;61.56
54924;BME280;40825;52.270;20.984;2023-10-19T11:34:54;99384.20;;;10.31;61.37
54924;BME280;40825;52.270;20.984;2023-10-19T11:37:26;99386.77;;;10.34;61.24
54924;BME280;40825;52.270;20.984;2023-10-19T11:40:06;99386.19;;;10.36;61.40
54924;BME280;40825;52.270;20.984;2023-10-19T11:42:58;99382.02;;;10.41;61.90
54924;BME280;40825;52.270;20.984;2023-10-19T11:45:26;99371.94;;;10.47;61.87
54924;BME280;40825;52.270;20.984;2023-10-19T11:48:01;99371.29;;;10.46;60.84
54924;BME280;40825;52.270;20.984;2023-10-19T11:50:27;99368.32;;;10.43;60.59
54924;BME280;40825;52.270;20.984;2023-10-19T11:52:53;99366.27;;;10.42;61.01
54924;BME280;40825;52.270;20.984;2023-10-19T11:55:24;99358.87;;;10.43;61.18
54924;BME280;40825;52.270;20.984;2023-10-19T11:57:58;99357.60;;;10.43;60.37
54924;BME280;40825;52.270;20.984;2023-10-19T12:00:33;99348.52;;;10.43;60.31
54924;BME280;40825;52.270;20.984;2023-10-19T12:02:59;99356.75;;;10.46;61.20
54924;BME280;40825;52.270;20.984;2023-10-19T12:05:25;99370.35;;;10.42;60.27
54924;BME280;40825;52.270;20.984;2023-10-19T12:07:54;99369.45;;;10.40;60.23
54924;BME280;40825;52.270;20.984;2023-10-19T12:10:42;99361.48;;;10.39;60.65
54924;BME280;40825;52.270;20.984;2023-10-19T12:13:07;99362.30;;;10.45;60.84
54924;BME280;40825;52.270;20.984;2023-10-19T12:15:34;99368.51;;;10.50;60.78
54924;BME280;40825;52.270;20.984;2023-10-19T12:18:24;99371.79;;;10.52;60.69
54924;BME280;40825;52.270;20.984;2023-10-19T12:21:09;99368.58;;;10.53;60.38
54924;BME280;40825;52.270;20.984;2023-10-19T12:23:42;99365.44;;;10.55;60.71
54924;BME280;40825;52.270;20.984;2023-10-19T12:26:54;99358.94;;;10.57;60.78
54924;BME280;40825;52.270;20.984;2023-10-19T12:29:32;99359.90;;;10.60;60.90
54924;BME280;40825;52.270;20.984;2023-10-19T12:32:00;99360.94;;;10.64;61.67
54924;BME280;40825;52.270;20.984;2023-10-19T12:34:28;99357.59;;;10.67;60.96
54924;BME280;40825;52.270;20.984;2023-10-19T12:37:00;99348.09;;;10.68;61.16
54924;BME280;40825;52.270;20.984;2023-10-19T12:39:27;99345.46;;;10.68;60.80
54924;BME280;40825;52.270;20.984;2023-10-19T12:42:10;99340.80;;;10.66;61.13
54924;BME280;40825;52.270;20.984;2023-10-19T12:44:36;99341.11;;;10.63;60.87
54924;BME280;40825;52.270;20.984;2023-10-19T12:47:06;99335.39;;;10.58;60.80
54924;BME280;40825;52.270;20.984;2023-10-19T12:50:08;99325.84;;;10.53;60.94
54924;BME280;40825;52.270;20.984;2023-10-19T12:52:43;99322.20;;;10.46;60.80
54924;BME280;40825;52.270;20.984;2023-10-19T12:55:12;99318.89;;;10.41;61.13
54924;BME280;40825;52.270;20.984;2023-10-19T12:57:38;99316.71;;;10.39;61.38
54924;BME280;40825;52.270;20.984;2023-10-19T13:00:07;99309.02;;;10.36;61.33
54924;BME280;40825;52.270;20.984;2023-10-19T13:02:49;99302.11;;;10.33;61.38
54924;BME280;40825;52.270;20.984;2023-10-19T13:05:15;99302.65;;;10.29;61.27
54924;BME280;40825;52.270;20.984;2023-10-19T13:07:46;99298.30;;;10.26;61.70
54924;BME280;40825;52.270;20.984;2023-10-19T13:10:14;99303.07;;;10.24;61.61
54924;BME280;40825;52.270;20.984;2023-10-19T13:12:40;99302.73;;;10.18;61.61
54924;BME280;40825;52.270;20.984;2023-10-19T13:15:07;99300.52;;;10.12;61.60
54924;BME280;40825;52.270;20.984;2023-10-19T13:17:48;99298.29;;;10.08;61.75
54924;BME280;40825;52.270;20.984;2023-10-19T13:20:14;99305.58;;;10.04;61.87
54924;BME280;40825;52.270;20.984;2023-10-19T13:22:44;99316.05;;;10.01;62.05
54924;BME280;40825;52.270;20.984;2023-10-19T13:25:12;99319.25;;;10.00;62.16
54924;BME280;40825;52.270;20.984;2023-10-19T13:27:44;99306.71;;;9.98;62.35
54924;BME280;40825;52.270;20.984;2023-10-19T13:30:13;99296.64;;;9.97;62.45
54924;BME280;40825;52.270;20.984;2023-10-19T13:32:40;99289.79;;;9.97;62.65
54924;BME280;40825;52.270;20.984;2023-10-19T13:35:08;99283.25;;;9.98;62.87
54924;BME280;40825;52.270;20.984;2023-10-19T13:37:35;99281.86;;;9.98;62.85
54924;BME280;40825;52.270;20.984;2023-10-19T13:40:05;99273.55;;;9.98;63.06
54924;BME280;40825;52.270;20.984;2023-10-19T13:42:37;99273.66;;;9.97;62.83
54924;BME280;40825;52.270;20.984;2023-10-19T13:45:04;99270.27;;;9.96;63.02
54924;BME280;40825;52.270;20.984;2023-10-19T13:47:30;99263.30;;;9.96;63.17
54924;BME280;40825;52.270;20.984;2023-10-19T13:49:59;99262.55;;;9.96;63.24
54924;BME280;40825;52.270;20.984;2023-10-19T13:52:25;99260.02;;;9.97;63.31
54924;BME280;40825;52.270;20.984;2023-10-19T13:54:50;99252.88;;;9.97;63.03